createdAt,value
2019-04-28T00:01:11.454Z,98605.81
2019-04-28T00:03:41.946Z,98603.33
2019-04-28T00:06:11.757Z,98604.25
2019-04-28T00:08:42.880Z,98602.50
2019-04-28T00:11:12.666Z,98601.25
2019-04-28T00:13:42.298Z,98597.34
2019-04-28T00:16:11.909Z,98597.10
2019-04-28T00:18:41.920Z,98591.63
2019-04-28T00:21:24.563Z,98596.02
2019-04-28T00:24:13.057Z,98597.20
2019-04-28T00:27:02.711Z,98599.92
2019-04-28T00:29:40.372Z,98602.02
2019-04-28T00:32:03.802Z,98593.55
2019-04-28T00:34:33.487Z,98601.95
2019-04-28T00:37:21.942Z,98607.63
2019-04-28T00:39:51.574Z,98600.09
2019-04-28T00:42:22.740Z,98598.58
2019-04-28T00:44:52.527Z,98596.95
2019-04-28T00:47:22.158Z,98602.84
2019-04-28T00:49:52.074Z,98609.59
2019-04-28T00:52:22.361Z,98607.78
2019-04-28T00:54:52.769Z,98609.48
2019-04-28T00:57:22.638Z,98602.92
2019-04-28T00:59:58.191Z,98610.86
2019-04-28T01:02:34.582Z,98608.44
2019-04-28T01:05:04.439Z,98604.86
2019-04-28T01:07:34.035Z,98610.45
2019-04-28T01:10:04.231Z,98603.23
2019-04-28T01:12:33.819Z,98603.61
2019-04-28T01:15:04.862Z,98611.37
2019-04-28T01:17:52.231Z,98597.13
2019-04-28T01:20:22.712Z,98593.20
2019-04-28T01:22:52.308Z,98599.11
2019-04-28T01:25:21.939Z,98597.86
2019-04-28T01:27:55.548Z,98595.30
2019-04-28T01:30:51.225Z,98598.07
2019-04-28T01:33:57.937Z,98598.41
2019-04-28T01:36:27.664Z,98594.10
2019-04-28T01:38:57.234Z,98588.08
2019-04-28T01:41:26.877Z,98582.02
2019-04-28T01:43:56.527Z,98585.75
2019-04-28T01:46:26.139Z,98592.71
2019-04-28T01:48:55.756Z,98589.81
2019-04-28T01:51:25.498Z,98591.73
2019-04-28T01:53:55.169Z,98590.50
2019-04-28T01:56:24.729Z,98586.81
2019-04-28T01:58:54.423Z,98584.97
2019-04-28T02:01:24.025Z,98586.64
2019-04-28T02:03:53.712Z,98579.81
2019-04-28T02:06:23.300Z,98580.30
2019-04-28T02:08:52.939Z,98586.53
2019-04-28T02:11:22.731Z,98585.67
2019-04-28T02:13:52.360Z,98593.73
2019-04-28T02:16:21.959Z,98586.72
2019-04-28T02:18:51.607Z,98587.02
2019-04-28T02:21:36.796Z,98588.98
2019-04-28T02:24:23.885Z,98599.35
2019-04-28T02:26:53.755Z,98606.70
2019-04-28T02:29:23.397Z,98606.70
2019-04-28T02:31:53.153Z,98604.83
2019-04-28T02:34:22.729Z,98603.98
2019-04-28T02:36:53.812Z,98608.33
2019-04-28T02:39:23.951Z,98621.12
2019-04-28T02:41:53.533Z,98627.17
2019-04-28T02:44:23.763Z,98623.15
2019-04-28T02:46:53.378Z,98633.66
2019-04-28T02:49:30.677Z,98625.73
2019-04-28T02:52:05.692Z,98630.52
2019-04-28T02:54:35.306Z,98635.67
2019-04-28T02:57:04.993Z,98644.22
2019-04-28T02:59:34.562Z,98643.02
2019-04-28T03:02:04.374Z,98645.59
2019-04-28T03:04:34.048Z,98645.83
2019-04-28T03:07:03.830Z,98652.38
2019-04-28T03:09:33.431Z,98647.35
2019-04-28T03:12:03.149Z,98652.97
2019-04-28T03:14:32.744Z,98656.25
2019-04-28T03:17:02.370Z,98651.78
2019-04-28T03:19:34.200Z,98658.45
2019-04-28T03:22:03.480Z,98657.67
2019-04-28T03:24:33.049Z,98655.79
2019-04-28T03:27:22.596Z,98668.63
2019-04-28T03:29:56.549Z,98594.84
2019-04-28T03:32:45.777Z,98681.63
2019-04-28T03:35:06.697Z,98680.16
2019-04-28T03:37:36.387Z,98690.04
2019-04-28T03:40:06.328Z,98687.82
2019-04-28T03:42:35.980Z,98694.41
2019-04-28T03:45:11.244Z,98699.80
2019-04-28T03:47:41.075Z,98699.83
2019-04-28T03:50:10.737Z,98698.11
2019-04-28T03:52:41.513Z,98695.68
2019-04-28T03:55:11.888Z,98695.85
2019-04-28T03:57:41.760Z,98699.38
2019-04-28T04:00:11.620Z,98705.23
2019-04-28T04:02:41.447Z,98711.47
2019-04-28T04:05:11.403Z,98712.05
2019-04-28T04:07:43.285Z,98709.93
2019-04-28T04:10:30.655Z,98712.52
2019-04-28T04:13:20.073Z,98712.02
2019-04-28T04:16:03.805Z,98718.71
2019-04-28T04:18:41.613Z,98723.27
2019-04-28T04:21:12.077Z,98724.08
2019-04-28T04:23:41.802Z,98726.49
2019-04-28T04:26:11.950Z,98734.70
2019-04-28T04:28:42.053Z,98736.09
2019-04-28T04:31:11.767Z,98739.22
2019-04-28T04:33:41.669Z,98740.08
2019-04-28T04:36:12.065Z,98740.69
2019-04-28T04:38:45.903Z,98738.80
2019-04-28T04:41:13.018Z,98742.75
2019-04-28T04:43:42.668Z,98740.94
2019-04-28T04:46:22.073Z,98741.59
2019-04-28T04:48:52.155Z,98744.17
2019-04-28T04:51:21.977Z,98754.62
2019-04-28T04:53:51.872Z,98751.34
2019-04-28T04:56:21.810Z,98760.09
2019-04-28T04:58:51.622Z,98754.22
2019-04-28T05:01:40.778Z,98756.48
2019-04-28T05:04:29.723Z,98761.70
2019-04-28T05:06:59.745Z,98764.44
2019-04-28T05:09:31.118Z,98767.71
2019-04-28T05:12:00.884Z,98758.95
2019-04-28T05:14:30.514Z,98759.00
2019-04-28T05:17:00.832Z,98758.63
2019-04-28T05:19:30.537Z,98764.50
2019-04-28T05:22:00.237Z,98767.84
2019-04-28T05:24:36.672Z,98761.19
2019-04-28T05:27:06.416Z,98761.65
2019-04-28T05:29:36.032Z,98765.77
2019-04-28T05:32:05.625Z,98769.49
2019-04-28T05:34:35.204Z,98769.26
2019-04-28T05:37:04.825Z,98768.63
2019-04-28T05:39:37.682Z,98773.95
2019-04-28T05:42:05.854Z,98767.71
2019-04-28T05:44:37.605Z,98759.82
2019-04-28T05:47:06.877Z,98765.00
2019-04-28T05:49:52.379Z,98759.58
2019-04-28T05:52:46.948Z,98776.69
2019-04-28T05:55:20.457Z,98770.81
2019-04-28T05:58:01.411Z,98614.59
2019-04-28T06:00:49.893Z,98769.78
2019-04-28T06:03:20.085Z,98769.42
2019-04-28T06:05:49.777Z,98771.23
2019-04-28T06:08:25.491Z,98775.02
2019-04-28T06:10:55.136Z,98774.91
2019-04-28T06:13:24.878Z,98770.09
2019-04-28T06:15:54.656Z,98770.95
2019-04-28T06:18:24.409Z,98628.06
2019-04-28T06:20:54.006Z,98775.67
2019-04-28T06:23:23.731Z,98778.62
2019-04-28T06:25:53.316Z,98774.31
2019-04-28T06:28:23.013Z,98770.56
2019-04-28T06:30:52.604Z,98776.74
2019-04-28T06:33:22.202Z,98777.20
2019-04-28T06:35:51.892Z,98775.53
2019-04-28T06:38:21.500Z,98773.88
2019-04-28T06:40:51.107Z,98769.06
2019-04-28T06:43:20.735Z,98774.31
2019-04-28T06:45:50.330Z,98776.13
2019-04-28T06:48:19.975Z,98770.23
2019-04-28T06:50:49.549Z,98771.38
2019-04-28T06:53:19.225Z,98763.17
2019-04-28T06:55:48.991Z,98777.88
2019-04-28T06:58:18.614Z,98773.64
2019-04-28T07:00:48.192Z,98657.13
2019-04-28T07:03:23.325Z,98774.84
2019-04-28T07:05:49.268Z,98774.84
2019-04-28T07:08:18.908Z,98769.47
2019-04-28T07:10:48.489Z,98767.98
2019-04-28T07:13:20.597Z,98766.47
2019-04-28T07:15:49.497Z,98771.66
2019-04-28T07:18:19.113Z,98765.11
2019-04-28T07:21:12.692Z,98761.40
2019-04-28T07:23:42.327Z,98761.55
2019-04-28T07:26:12.056Z,98760.67
2019-04-28T07:28:41.716Z,98762.75
2019-04-28T07:31:11.442Z,98752.77
2019-04-28T07:33:41.042Z,98753.91
2019-04-28T07:36:10.689Z,98755.20
2019-04-28T07:38:40.457Z,98764.02
2019-04-28T07:41:10.187Z,98757.57
2019-04-28T07:43:39.920Z,98762.09
2019-04-28T07:46:09.513Z,98762.62
2019-04-28T07:48:39.145Z,98758.52
2019-04-28T07:51:08.883Z,98758.53
2019-04-28T07:53:46.900Z,98775.80
2019-04-28T07:56:16.616Z,98755.64
2019-04-28T07:58:46.243Z,98690.34
2019-04-28T08:01:15.816Z,98759.44
2019-04-28T08:03:49.702Z,98762.10
2019-04-28T08:06:16.816Z,98749.09
2019-04-28T08:08:46.484Z,98756.46
2019-04-28T08:11:16.417Z,98763.91
2019-04-28T08:13:46.228Z,98760.48
2019-04-28T08:16:15.956Z,98753.72
2019-04-28T08:18:45.550Z,98615.42
2019-04-28T08:21:15.181Z,98763.84
2019-04-28T08:23:47.394Z,98751.54
2019-04-28T08:26:16.107Z,98757.53
2019-04-28T08:28:45.749Z,98757.86
2019-04-28T08:31:17.034Z,98764.98
2019-04-28T08:34:02.185Z,98753.31
2019-04-28T08:36:25.031Z,98752.72
2019-04-28T08:38:54.616Z,98756.38
2019-04-28T08:41:24.200Z,98751.58
2019-04-28T08:43:53.842Z,98744.75
2019-04-28T08:46:23.553Z,98734.48
2019-04-28T08:48:53.120Z,98744.42
2019-04-28T08:51:22.684Z,98734.95
2019-04-28T08:53:52.291Z,98743.11
2019-04-28T08:56:21.952Z,98733.28
2019-04-28T08:58:51.873Z,98736.23
2019-04-28T09:01:21.523Z,98733.91
2019-04-28T09:03:51.125Z,98729.16
2019-04-28T09:06:20.812Z,98732.56
2019-04-28T09:08:50.488Z,98722.97
2019-04-28T09:11:20.153Z,98731.73
2019-04-28T09:13:49.698Z,98734.94
2019-04-28T09:16:19.299Z,98638.16
2019-04-28T09:18:48.940Z,98726.72
2019-04-28T09:21:18.522Z,98733.91
2019-04-28T09:23:48.146Z,98737.11
2019-04-28T09:26:17.730Z,98727.28
2019-04-28T09:28:47.386Z,98722.50
2019-04-28T09:31:17.063Z,98726.98
2019-04-28T09:33:47.150Z,98727.33
2019-04-28T09:36:16.872Z,98729.20
2019-04-28T09:38:47.072Z,98724.89
2019-04-28T09:41:16.741Z,98727.09
2019-04-28T09:44:04.228Z,98727.62
2019-04-28T09:46:36.597Z,98721.15
2019-04-28T09:49:06.392Z,98720.11
2019-04-28T09:51:35.976Z,98723.97
2019-04-28T09:54:05.796Z,98721.09
2019-04-28T09:56:36.139Z,98714.56
2019-04-28T09:59:05.887Z,98717.59
2019-04-28T10:01:35.576Z,98712.14
2019-04-28T10:04:05.302Z,98707.25
2019-04-28T10:06:34.940Z,98703.41
2019-04-28T10:09:05.851Z,98708.89
2019-04-28T10:11:35.565Z,98614.09
2019-04-28T10:14:05.226Z,98705.12
2019-04-28T10:16:34.851Z,98712.37
2019-04-28T10:19:04.516Z,98699.61
2019-04-28T10:21:34.169Z,98699.65
2019-04-28T10:24:03.767Z,98695.61
2019-04-28T10:26:33.483Z,98702.12
2019-04-28T10:29:03.116Z,98690.80
2019-04-28T10:31:32.776Z,98695.16
2019-04-28T10:34:04.080Z,98685.02
2019-04-28T10:36:35.333Z,98693.73
2019-04-28T10:39:24.378Z,98687.44
2019-04-28T10:41:54.237Z,98692.95
2019-04-28T10:44:24.791Z,98688.16
2019-04-28T10:46:54.618Z,98682.37
2019-04-28T10:49:24.256Z,98668.23
2019-04-28T10:51:59.588Z,98669.69
2019-04-28T10:54:25.233Z,98665.56
2019-04-28T10:56:54.855Z,98668.53
2019-04-28T10:59:24.610Z,98658.73
2019-04-28T11:01:54.205Z,98657.97
2019-04-28T11:04:41.453Z,98651.11
2019-04-28T11:07:12.161Z,98653.89
2019-04-28T11:09:45.035Z,98646.13
2019-04-28T11:12:21.143Z,98641.11
2019-04-28T11:14:51.196Z,98645.28
2019-04-28T11:17:22.079Z,98642.02
2019-04-28T11:19:51.925Z,98636.89
2019-04-28T11:22:21.637Z,98637.02
2019-04-28T11:24:51.240Z,98633.42
2019-04-28T11:27:21.016Z,98634.64
2019-04-28T11:29:50.722Z,98631.52
2019-04-28T11:32:20.373Z,98634.02
2019-04-28T11:35:05.420Z,98629.72
2019-04-28T11:37:35.061Z,98635.19
2019-04-28T11:40:04.791Z,98528.45
2019-04-28T11:42:34.396Z,98630.48
2019-04-28T11:45:04.782Z,98539.95
2019-04-28T11:47:34.433Z,98617.19
2019-04-28T11:50:04.275Z,98621.34
2019-04-28T11:52:33.963Z,98616.83
2019-04-28T11:55:03.630Z,98611.67
2019-04-28T11:57:33.360Z,98618.64
2019-04-28T12:00:04.603Z,98611.16
2019-04-28T12:02:34.334Z,98603.00
2019-04-28T12:05:04.117Z,98595.97
2019-04-28T12:07:33.739Z,98602.00
2019-04-28T12:10:12.674Z,98592.39
2019-04-28T12:13:10.691Z,98593.41
2019-04-28T12:15:59.010Z,98596.56
2019-04-28T12:18:46.073Z,98591.41
2019-04-28T12:21:15.746Z,98503.41
2019-04-28T12:23:45.380Z,98581.38
2019-04-28T12:26:15.043Z,98583.33
2019-04-28T12:28:44.736Z,98578.08
2019-04-28T12:31:14.419Z,98586.29
2019-04-28T12:33:44.032Z,98569.91
2019-04-28T12:36:13.667Z,98564.70
2019-04-28T12:38:43.308Z,98558.38
2019-04-28T12:41:12.967Z,98563.30
2019-04-28T12:43:42.614Z,98553.72
2019-04-28T12:46:12.297Z,98551.83
2019-04-28T12:48:41.980Z,98550.70
2019-04-28T12:51:12.083Z,98546.27
2019-04-28T12:53:41.693Z,98544.66
2019-04-28T12:56:11.458Z,98545.78
2019-04-28T12:58:41.080Z,98540.82
2019-04-28T13:01:29.620Z,98539.70
2019-04-28T13:04:15.106Z,98535.31
2019-04-28T13:07:01.935Z,98534.91
2019-04-28T13:09:32.031Z,98533.75
2019-04-28T13:12:01.778Z,98535.78
2019-04-28T13:14:31.395Z,98533.01
2019-04-28T13:17:01.042Z,98528.03
2019-04-28T13:19:30.670Z,98521.59
2019-04-28T13:22:00.384Z,98523.29
2019-04-28T13:24:30.083Z,98521.33
2019-04-28T13:27:00.656Z,98520.55
2019-04-28T13:29:30.400Z,98519.95
2019-04-28T13:32:00.040Z,98529.27
2019-04-28T13:34:31.565Z,98525.61
2019-04-28T13:37:01.254Z,98521.19
2019-04-28T13:39:36.414Z,98525.66
2019-04-28T13:42:06.378Z,98514.73
2019-04-28T13:44:53.876Z,98512.61
2019-04-28T13:47:24.026Z,98516.64
2019-04-28T13:49:57.387Z,98518.59
2019-04-28T13:52:27.102Z,98515.91
2019-04-28T13:55:07.083Z,98513.69
2019-04-28T13:57:36.739Z,98514.49
2019-04-28T14:00:09.399Z,98507.99
2019-04-28T14:02:57.902Z,98510.14
2019-04-28T14:05:40.564Z,98511.48
2019-04-28T14:08:10.284Z,98512.63
2019-04-28T14:10:40.027Z,98509.91
2019-04-28T14:13:09.651Z,98505.58
2019-04-28T14:15:39.279Z,98501.39
2019-04-28T14:18:09.012Z,98503.34
2019-04-28T14:20:38.752Z,98498.63
2019-04-28T14:23:08.472Z,98503.75
2019-04-28T14:25:38.151Z,98496.34
2019-04-28T14:28:08.073Z,98497.55
2019-04-28T14:30:37.741Z,98498.91
2019-04-28T14:33:07.465Z,98501.09
2019-04-28T14:35:37.118Z,98500.48
2019-04-28T14:38:07.077Z,98496.95
2019-04-28T14:40:36.717Z,98498.32
2019-04-28T14:43:15.744Z,98504.56
2019-04-28T14:45:45.563Z,98496.63
2019-04-28T14:48:15.285Z,98500.73
2019-04-28T14:50:44.960Z,98493.42
2019-04-28T14:53:15.845Z,98497.56
2019-04-28T14:55:45.566Z,98504.30
2019-04-28T14:58:15.169Z,98494.38
2019-04-28T15:00:49.342Z,98491.21
2019-04-28T15:03:19.038Z,98493.62
2019-04-28T15:06:02.888Z,98496.57
2019-04-28T15:08:47.845Z,98489.25
2019-04-28T15:11:31.131Z,98489.77
2019-04-28T15:14:00.945Z,98488.21
2019-04-28T15:16:30.691Z,98489.56
2019-04-28T15:19:00.349Z,98492.87
2019-04-28T15:21:30.112Z,98498.89
2019-04-28T15:23:59.785Z,98493.13
2019-04-28T15:26:29.398Z,98487.13
2019-04-28T15:28:59.114Z,98485.21
2019-04-28T15:31:28.751Z,98491.52
2019-04-28T15:33:58.407Z,98487.94
2019-04-28T15:36:28.372Z,98477.06
2019-04-28T15:38:57.957Z,98477.66
2019-04-28T15:41:27.699Z,98472.90
2019-04-28T15:43:58.099Z,98473.86
2019-04-28T15:46:27.866Z,98473.86
2019-04-28T15:48:57.573Z,98470.70
2019-04-28T15:51:27.369Z,98471.27
2019-04-28T15:53:57.020Z,98466.98
2019-04-28T15:56:43.305Z,98471.94
2019-04-28T15:59:12.974Z,98471.78
2019-04-28T16:01:42.795Z,98471.33
2019-04-28T16:04:12.517Z,98468.64
2019-04-28T16:06:42.124Z,98466.06
2019-04-28T16:09:15.208Z,98466.28
2019-04-28T16:11:44.823Z,98465.22
2019-04-28T16:14:14.586Z,98468.23
2019-04-28T16:16:44.234Z,98468.77
2019-04-28T16:19:13.936Z,98468.77
2019-04-28T16:21:43.625Z,98466.58
2019-04-28T16:24:13.295Z,98473.12
2019-04-28T16:26:43.082Z,98471.17
2019-04-28T16:29:12.933Z,98471.24
2019-04-28T16:31:42.727Z,98468.69
2019-04-28T16:34:12.431Z,98466.45
2019-04-28T16:36:42.211Z,98468.62
2019-04-28T16:39:11.950Z,98473.55
2019-04-28T16:41:41.642Z,98470.40
2019-04-28T16:44:19.746Z,98468.39
2019-04-28T16:46:49.392Z,98475.15
2019-04-28T16:49:19.168Z,98476.97
2019-04-28T16:51:48.794Z,98478.86
2019-04-28T16:54:18.492Z,98485.60
2019-04-28T16:57:13.124Z,98485.76
2019-04-28T16:59:52.938Z,98491.31
2019-04-28T17:02:50.519Z,98488.58
2019-04-28T17:05:20.324Z,98488.45
2019-04-28T17:07:53.178Z,98497.14
2019-04-28T17:10:21.508Z,98492.34
2019-04-28T17:12:51.278Z,98490.70
2019-04-28T17:15:20.949Z,98496.25
2019-04-28T17:17:50.573Z,98496.74
2019-04-28T17:20:20.187Z,98499.44
2019-04-28T17:22:49.922Z,98457.64
2019-04-28T17:25:19.597Z,98364.23
2019-04-28T17:27:49.253Z,98509.52
2019-04-28T17:30:18.924Z,98506.98
2019-04-28T17:32:48.687Z,98502.60
2019-04-28T17:35:18.372Z,98503.23
2019-04-28T17:37:47.976Z,98513.92
2019-04-28T17:40:19.606Z,98510.66
2019-04-28T17:42:49.211Z,98520.63
2019-04-28T17:45:19.831Z,98523.50
2019-04-28T17:47:50.631Z,98533.47
2019-04-28T17:50:22.046Z,98529.37
2019-04-28T17:52:51.734Z,98534.50
2019-04-28T17:55:21.453Z,98537.67
2019-04-28T17:57:51.237Z,98537.05
2019-04-28T18:00:33.306Z,98542.88
2019-04-28T18:03:17.014Z,98544.98
2019-04-28T18:05:58.488Z,98443.48
2019-04-28T18:08:28.173Z,98547.98
2019-04-28T18:13:26.320Z,98557.01
2019-04-28T18:16:06.851Z,98562.15
2019-04-28T18:18:42.501Z,98561.17
2019-04-28T18:21:12.096Z,98562.94
2019-04-28T18:23:41.904Z,98558.65
2019-04-28T18:26:11.602Z,98557.66
2019-04-28T18:28:41.242Z,98553.44
2019-04-28T18:31:29.806Z,98558.03
2019-04-28T18:34:33.510Z,98558.78
2019-04-28T18:37:37.446Z,98564.44
2019-04-28T18:40:35.439Z,98563.31
2019-04-28T18:43:27.177Z,98565.59
2019-04-28T18:45:56.755Z,98566.69
2019-04-28T18:48:26.465Z,98565.43
2019-04-28T18:50:56.079Z,98568.80
2019-04-28T18:53:25.710Z,98578.88
2019-04-28T18:55:55.600Z,98583.98
2019-04-28T18:58:25.266Z,98580.22
2019-04-28T19:01:20.033Z,98583.09
2019-04-28T19:03:49.683Z,98572.90
2019-04-28T19:06:19.708Z,98568.98
2019-04-28T19:08:57.498Z,98575.94
2019-04-28T19:11:52.071Z,98582.95
2019-04-28T19:14:28.802Z,98594.92
2019-04-28T19:17:07.692Z,98590.49
2019-04-28T19:19:38.198Z,98591.66
2019-04-28T19:22:07.946Z,98599.89
2019-04-28T19:24:37.639Z,98599.09
2019-04-28T19:27:07.274Z,98593.88
2019-04-28T19:29:37.032Z,98597.69
2019-04-28T19:32:06.657Z,98608.34
2019-04-28T19:34:36.311Z,98448.63
2019-04-28T19:37:06.001Z,98608.06
2019-04-28T19:39:36.205Z,98605.84
2019-04-28T19:42:06.232Z,98605.29
2019-04-28T19:44:35.871Z,98606.58
2019-04-28T19:47:05.492Z,98612.09
2019-04-28T19:49:35.161Z,98612.56
2019-04-28T19:52:04.874Z,98608.11
2019-04-28T19:54:37.883Z,98610.52
2019-04-28T19:57:24.525Z,98609.98
2019-04-28T20:00:28.089Z,98606.20
2019-04-28T20:02:57.667Z,98613.69
2019-04-28T20:05:27.315Z,98612.11
2019-04-28T20:07:57.030Z,98613.83
2019-04-28T20:10:26.609Z,98612.80
2019-04-28T20:12:56.242Z,98614.02
2019-04-28T20:15:25.866Z,98612.34
2019-04-28T20:17:55.452Z,98619.00
2019-04-28T20:20:25.038Z,98615.92
2019-04-28T20:22:54.824Z,98623.58
2019-04-28T20:25:24.567Z,98628.35
2019-04-28T20:27:54.164Z,98632.49
2019-04-28T20:30:23.755Z,98632.41
2019-04-28T20:33:06.184Z,98635.71
2019-04-28T20:35:28.639Z,98638.78
2019-04-28T20:38:10.914Z,98644.20
2019-04-28T20:40:45.755Z,98645.30
2019-04-28T20:43:17.490Z,98647.64
2019-04-28T20:45:47.084Z,98652.97
2019-04-28T20:48:16.718Z,98649.86
2019-04-28T20:50:46.376Z,98644.08
2019-04-28T20:53:19.149Z,98645.45
2019-04-28T20:55:47.379Z,98641.66
2019-04-28T20:58:17.026Z,98650.24
2019-04-28T21:00:46.647Z,98654.94
2019-04-28T21:03:16.342Z,98656.66
2019-04-28T21:05:45.916Z,98658.81
2019-04-28T21:08:15.645Z,98657.60
2019-04-28T21:10:45.210Z,98654.97
2019-04-28T21:13:14.932Z,98656.63
2019-04-28T21:15:44.554Z,98659.58
2019-04-28T21:18:14.266Z,98661.71
2019-04-28T21:20:43.900Z,98655.50
2019-04-28T21:23:13.487Z,98658.94
2019-04-28T21:25:43.058Z,98666.13
2019-04-28T21:28:12.620Z,98667.52
2019-04-28T21:30:42.261Z,98656.88
2019-04-28T21:33:12.435Z,98660.25
2019-04-28T21:35:42.047Z,98660.20
2019-04-28T21:38:11.646Z,98648.17
2019-04-28T21:40:42.411Z,98640.22
2019-04-28T21:43:30.909Z,98639.68
2019-04-28T21:46:16.650Z,98637.37
2019-04-28T21:48:51.696Z,98618.21
2019-04-28T21:51:21.426Z,98612.63
2019-04-28T21:53:51.006Z,98613.07
2019-04-28T21:56:20.598Z,98607.81
2019-04-28T21:58:50.182Z,98612.34
2019-04-28T22:01:22.650Z,98607.36
2019-04-28T22:03:52.335Z,98614.69
2019-04-28T22:06:22.021Z,98620.73
2019-04-28T22:08:51.790Z,98610.59
2019-04-28T22:11:21.415Z,98615.38
2019-04-28T22:13:51.091Z,98610.95
2019-04-28T22:16:20.731Z,98613.98
2019-04-28T22:18:50.337Z,98611.09
2019-04-28T22:21:19.965Z,98604.13
2019-04-28T22:24:08.417Z,98607.59
2019-04-28T22:26:51.727Z,98610.98
2019-04-28T22:29:21.472Z,98616.07
2019-04-28T22:31:51.141Z,98620.39
2019-04-28T22:34:20.715Z,98614.65
2019-04-28T22:36:50.339Z,98613.74
2019-04-28T22:39:20.117Z,98613.87
2019-04-28T22:41:49.713Z,98622.37
2019-04-28T22:44:19.306Z,98623.86
2019-04-28T22:46:48.894Z,98621.90
2019-04-28T22:49:18.706Z,98624.89
2019-04-28T22:51:48.261Z,98622.59
2019-04-28T22:54:39.778Z,98628.08
2019-04-28T22:57:43.411Z,98625.47
2019-04-28T23:00:35.437Z,98635.03
2019-04-28T23:03:05.798Z,98634.23
2019-04-28T23:05:35.376Z,98629.48
2019-04-28T23:08:05.140Z,98631.66
2019-04-28T23:10:34.750Z,98630.59
2019-04-28T23:13:04.449Z,98629.72
2019-04-28T23:15:34.131Z,98629.69
2019-04-28T23:18:03.945Z,98631.72
2019-04-28T23:20:35.443Z,98627.90
2019-04-28T23:23:06.298Z,98640.27
2019-04-28T23:25:35.887Z,98632.09
2019-04-28T23:28:05.721Z,98632.99
2019-04-28T23:30:37.943Z,98636.41
2019-04-28T23:33:07.490Z,98639.75
2019-04-28T23:35:37.180Z,98640.83
2019-04-28T23:38:06.872Z,98643.39
2019-04-28T23:40:38.540Z,98638.47
2019-04-28T23:43:11.874Z,98651.95
2019-04-28T23:45:41.458Z,98653.84
2019-04-28T23:48:11.039Z,98648.14
2019-04-28T23:50:52.789Z,98655.41
2019-04-28T23:53:41.304Z,98648.53
2019-04-28T23:56:10.891Z,98647.82
2019-04-28T23:58:40.560Z,98654.84
